sensor_id;sensor_type;location;lat;lon;timestamp;P1;durP1;ratioP1;P2;durP2;ratioP2
69714;SDS011;56981;53.532;49.398;2023-07-02T00:01:46;5.93;;;4.00;;
69714;SDS011;56981;53.532;49.398;2023-07-02T00:04:13;6.10;;;4.18;;
69714;SDS011;56981;53.532;49.398;2023-07-02T00:06:42;5.70;;;4.05;;
69714;SDS011;56981;53.532;49.398;2023-07-02T00:09:09;5.25;;;3.95;;
69714;SDS011;56981;53.532;49.398;2023-07-02T00:11:39;5.20;;;3.85;;
69714;SDS011;56981;53.532;49.398;2023-07-02T00:14:07;4.13;;;3.50;;
69714;SDS011;56981;53.532;49.398;2023-07-02T00:16:38;4.63;;;4.03;;
69714;SDS011;56981;53.532;49.398;2023-07-02T00:19:14;9.95;;;4.22;;
69714;SDS011;56981;53.532;49.398;2023-07-02T00:21:41;5.15;;;3.95;;
69714;SDS011;56981;53.532;49.398;2023-07-02T00:24:07;4.30;;;3.80;;
69714;SDS011;56981;53.532;49.398;2023-07-02T00:26:37;4.28;;;3.72;;
69714;SDS011;56981;53.532;49.398;2023-07-02T00:29:05;3.97;;;3.40;;
69714;SDS011;56981;53.532;49.398;2023-07-02T00:31:33;4.38;;;3.22;;
69714;SDS011;56981;53.532;49.398;2023-07-02T00:33:59;4.38;;;3.33;;
69714;SDS011;56981;53.532;49.398;2023-07-02T00:36:29;3.90;;;3.22;;
69714;SDS011;56981;53.532;49.398;2023-07-02T00:38:56;5.40;;;3.90;;
69714;SDS011;56981;53.532;49.398;2023-07-02T00:41:23;5.25;;;3.72;;
69714;SDS011;56981;53.532;49.398;2023-07-02T00:43:50;5.07;;;3.30;;
69714;SDS011;56981;53.532;49.398;2023-07-02T00:46:20;4.85;;;3.70;;
69714;SDS011;56981;53.532;49.398;2023-07-02T00:48:51;5.15;;;3.58;;
69714;SDS011;56981;53.532;49.398;2023-07-02T00:51:19;4.43;;;3.45;;
69714;SDS011;56981;53.532;49.398;2023-07-02T00:53:50;5.00;;;3.70;;
69714;SDS011;56981;53.532;49.398;2023-07-02T00:56:21;4.80;;;3.78;;
69714;SDS011;56981;53.532;49.398;2023-07-02T00:58:48;3.75;;;3.20;;
69714;SDS011;56981;53.532;49.398;2023-07-02T01:01:20;4.05;;;3.50;;
69714;SDS011;56981;53.532;49.398;2023-07-02T01:03:58;4.10;;;3.45;;
69714;SDS011;56981;53.532;49.398;2023-07-02T01:06:28;4.13;;;3.65;;
69714;SDS011;56981;53.532;49.398;2023-07-02T01:08:56;4.18;;;3.45;;
69714;SDS011;56981;53.532;49.398;2023-07-02T01:11:34;4.03;;;3.63;;
69714;SDS011;56981;53.532;49.398;2023-07-02T01:16:35;5.18;;;3.47;;
69714;SDS011;56981;53.532;49.398;2023-07-02T01:19:04;6.88;;;4.30;;
69714;SDS011;56981;53.532;49.398;2023-07-02T01:21:32;3.50;;;2.90;;
69714;SDS011;56981;53.532;49.398;2023-07-02T01:23:59;5.78;;;3.53;;
69714;SDS011;56981;53.532;49.398;2023-07-02T01:26:30;5.80;;;3.50;;
69714;SDS011;56981;53.532;49.398;2023-07-02T01:29:11;4.05;;;3.33;;
69714;SDS011;56981;53.532;49.398;2023-07-02T01:31:39;4.45;;;3.42;;
69714;SDS011;56981;53.532;49.398;2023-07-02T01:34:05;4.13;;;3.20;;
69714;SDS011;56981;53.532;49.398;2023-07-02T01:36:33;4.88;;;3.50;;
69714;SDS011;56981;53.532;49.398;2023-07-02T01:38:59;5.32;;;3.83;;
69714;SDS011;56981;53.532;49.398;2023-07-02T01:41:25;6.18;;;3.55;;
69714;SDS011;56981;53.532;49.398;2023-07-02T01:43:52;6.93;;;3.50;;
69714;SDS011;56981;53.532;49.398;2023-07-02T01:46:18;4.95;;;3.47;;
69714;SDS011;56981;53.532;49.398;2023-07-02T01:48:44;3.50;;;3.20;;
69714;SDS011;56981;53.532;49.398;2023-07-02T01:51:10;5.03;;;3.38;;
69714;SDS011;56981;53.532;49.398;2023-07-02T01:53:36;4.43;;;3.60;;
69714;SDS011;56981;53.532;49.398;2023-07-02T01:56:02;5.22;;;3.75;;
69714;SDS011;56981;53.532;49.398;2023-07-02T01:58:28;3.50;;;3.20;;
69714;SDS011;56981;53.532;49.398;2023-07-02T02:00:54;3.53;;;3.22;;
69714;SDS011;56981;53.532;49.398;2023-07-02T02:03:21;3.20;;;2.90;;
69714;SDS011;56981;53.532;49.398;2023-07-02T02:05:47;3.60;;;3.30;;
69714;SDS011;56981;53.532;49.398;2023-07-02T02:08:13;3.85;;;3.20;;
69714;SDS011;56981;53.532;49.398;2023-07-02T02:10:40;5.45;;;3.05;;
69714;SDS011;56981;53.532;49.398;2023-07-02T02:13:06;3.20;;;2.88;;
69714;SDS011;56981;53.532;49.398;2023-07-02T02:15:32;3.60;;;3.00;;
69714;SDS011;56981;53.532;49.398;2023-07-02T02:17:58;3.20;;;2.58;;
69714;SDS011;56981;53.532;49.398;2023-07-02T02:20:24;3.33;;;2.90;;
69714;SDS011;56981;53.532;49.398;2023-07-02T02:22:50;2.53;;;2.33;;
69714;SDS011;56981;53.532;49.398;2023-07-02T02:25:16;2.50;;;2.30;;
69714;SDS011;56981;53.532;49.398;2023-07-02T02:27:43;2.33;;;2.13;;
69714;SDS011;56981;53.532;49.398;2023-07-02T02:30:09;3.65;;;2.50;;
69714;SDS011;56981;53.532;49.398;2023-07-02T02:32:35;2.25;;;2.10;;
69714;SDS011;56981;53.532;49.398;2023-07-02T02:35:02;2.35;;;2.15;;
69714;SDS011;56981;53.532;49.398;2023-07-02T02:37:29;4.00;;;2.30;;
69714;SDS011;56981;53.532;49.398;2023-07-02T02:39:55;2.38;;;2.17;;
69714;SDS011;56981;53.532;49.398;2023-07-02T02:42:24;3.58;;;2.55;;
69714;SDS011;56981;53.532;49.398;2023-07-02T02:44:51;3.00;;;2.40;;
69714;SDS011;56981;53.532;49.398;2023-07-02T02:47:17;4.90;;;2.55;;
69714;SDS011;56981;53.532;49.398;2023-07-02T02:49:43;7.95;;;2.45;;
69714;SDS011;56981;53.532;49.398;2023-07-02T02:52:09;2.50;;;2.30;;
69714;SDS011;56981;53.532;49.398;2023-07-02T02:54:35;4.15;;;2.40;;
69714;SDS011;56981;53.532;49.398;2023-07-02T02:57:01;4.40;;;2.20;;
69714;SDS011;56981;53.532;49.398;2023-07-02T02:59:27;2.55;;;2.00;;
69714;SDS011;56981;53.532;49.398;2023-07-02T03:01:53;5.75;;;2.40;;
69714;SDS011;56981;53.532;49.398;2023-07-02T03:04:19;1.63;;;1.52;;
69714;SDS011;56981;53.532;49.398;2023-07-02T03:06:51;2.05;;;1.88;;
69714;SDS011;56981;53.532;49.398;2023-07-02T03:09:21;5.55;;;1.85;;
69714;SDS011;56981;53.532;49.398;2023-07-02T03:11:47;1.60;;;1.50;;
69714;SDS011;56981;53.532;49.398;2023-07-02T03:14:14;4.00;;;1.50;;
69714;SDS011;56981;53.532;49.398;2023-07-02T03:16:41;1.73;;;1.45;;
69714;SDS011;56981;53.532;49.398;2023-07-02T03:19:07;1.42;;;1.30;;
69714;SDS011;56981;53.532;49.398;2023-07-02T03:21:34;2.00;;;1.90;;
69714;SDS011;56981;53.532;49.398;2023-07-02T03:24:01;1.60;;;1.50;;
69714;SDS011;56981;53.532;49.398;2023-07-02T03:26:27;2.38;;;1.73;;
69714;SDS011;56981;53.532;49.398;2023-07-02T03:28:53;1.40;;;1.30;;
69714;SDS011;56981;53.532;49.398;2023-07-02T03:31:19;1.58;;;1.48;;
69714;SDS011;56981;53.532;49.398;2023-07-02T03:33:45;1.63;;;1.52;;
69714;SDS011;56981;53.532;49.398;2023-07-02T03:36:11;1.60;;;1.50;;
69714;SDS011;56981;53.532;49.398;2023-07-02T03:38:37;1.80;;;1.65;;
69714;SDS011;56981;53.532;49.398;2023-07-02T03:41:03;2.00;;;1.70;;
69714;SDS011;56981;53.532;49.398;2023-07-02T03:43:29;2.60;;;1.85;;
69714;SDS011;56981;53.532;49.398;2023-07-02T03:45:57;2.15;;;1.40;;
69714;SDS011;56981;53.532;49.398;2023-07-02T03:48:23;1.63;;;1.52;;
69714;SDS011;56981;53.532;49.398;2023-07-02T03:50:49;4.40;;;1.67;;
69714;SDS011;56981;53.532;49.398;2023-07-02T03:53:15;1.60;;;1.50;;
69714;SDS011;56981;53.532;49.398;2023-07-02T03:55:41;1.50;;;1.40;;
69714;SDS011;56981;53.532;49.398;2023-07-02T03:58:07;1.45;;;1.35;;
69714;SDS011;56981;53.532;49.398;2023-07-02T04:00:33;2.25;;;1.77;;
69714;SDS011;56981;53.532;49.398;2023-07-02T04:02:59;1.70;;;1.60;;
69714;SDS011;56981;53.532;49.398;2023-07-02T04:05:25;2.10;;;1.80;;
69714;SDS011;56981;53.532;49.398;2023-07-02T04:07:51;1.38;;;1.23;;
69714;SDS011;56981;53.532;49.398;2023-07-02T04:10:17;2.03;;;1.15;;
69714;SDS011;56981;53.532;49.398;2023-07-02T04:12:44;1.50;;;1.40;;
69714;SDS011;56981;53.532;49.398;2023-07-02T04:15:10;2.05;;;1.52;;
69714;SDS011;56981;53.532;49.398;2023-07-02T04:17:36;1.77;;;1.65;;
69714;SDS011;56981;53.532;49.398;2023-07-02T04:20:02;2.65;;;1.40;;
69714;SDS011;56981;53.532;49.398;2023-07-02T04:22:29;1.30;;;1.30;;
69714;SDS011;56981;53.532;49.398;2023-07-02T04:24:56;1.48;;;1.38;;
69714;SDS011;56981;53.532;49.398;2023-07-02T04:27:22;3.22;;;1.48;;
69714;SDS011;56981;53.532;49.398;2023-07-02T04:29:48;2.72;;;1.30;;
69714;SDS011;56981;53.532;49.398;2023-07-02T04:32:14;1.60;;;1.50;;
69714;SDS011;56981;53.532;49.398;2023-07-02T04:34:40;1.67;;;1.40;;
69714;SDS011;56981;53.532;49.398;2023-07-02T04:37:08;1.33;;;1.23;;
69714;SDS011;56981;53.532;49.398;2023-07-02T04:39:35;1.58;;;1.48;;
69714;SDS011;56981;53.532;49.398;2023-07-02T04:42:01;1.58;;;1.02;;
69714;SDS011;56981;53.532;49.398;2023-07-02T04:44:27;2.15;;;1.40;;
69714;SDS011;56981;53.532;49.398;2023-07-02T04:46:57;4.43;;;1.50;;
69714;SDS011;56981;53.532;49.398;2023-07-02T04:49:24;1.50;;;1.40;;
69714;SDS011;56981;53.532;49.398;2023-07-02T04:51:50;2.10;;;1.30;;
69714;SDS011;56981;53.532;49.398;2023-07-02T04:54:20;1.48;;;1.38;;
69714;SDS011;56981;53.532;49.398;2023-07-02T04:56:47;1.40;;;1.10;;
69714;SDS011;56981;53.532;49.398;2023-07-02T04:59:14;1.35;;;1.10;;
69714;SDS011;56981;53.532;49.398;2023-07-02T05:01:41;1.48;;;1.38;;
69714;SDS011;56981;53.532;49.398;2023-07-02T05:04:09;2.28;;;1.48;;
69714;SDS011;56981;53.532;49.398;2023-07-02T05:06:36;2.50;;;1.10;;
69714;SDS011;56981;53.532;49.398;2023-07-02T05:09:03;3.42;;;1.48;;
69714;SDS011;56981;53.532;49.398;2023-07-02T05:11:29;3.30;;;1.60;;
69714;SDS011;56981;53.532;49.398;2023-07-02T05:13:55;4.22;;;1.38;;
69714;SDS011;56981;53.532;49.398;2023-07-02T05:16:21;1.95;;;1.33;;
69714;SDS011;56981;53.532;49.398;2023-07-02T05:18:47;2.13;;;1.48;;
69714;SDS011;56981;53.532;49.398;2023-07-02T05:21:17;1.70;;;1.60;;
69714;SDS011;56981;53.532;49.398;2023-07-02T05:23:43;3.67;;;1.85;;
69714;SDS011;56981;53.532;49.398;2023-07-02T05:26:10;4.53;;;1.95;;
69714;SDS011;56981;53.532;49.398;2023-07-02T05:28:36;4.10;;;1.70;;
69714;SDS011;56981;53.532;49.398;2023-07-02T05:31:02;1.73;;;1.63;;
69714;SDS011;56981;53.532;49.398;2023-07-02T05:33:28;1.60;;;1.50;;
69714;SDS011;56981;53.532;49.398;2023-07-02T05:35:56;2.83;;;1.40;;
69714;SDS011;56981;53.532;49.398;2023-07-02T05:38:22;5.43;;;2.15;;
69714;SDS011;56981;53.532;49.398;2023-07-02T05:40:49;2.42;;;1.98;;
69714;SDS011;56981;53.532;49.398;2023-07-02T05:43:16;7.97;;;2.60;;
69714;SDS011;56981;53.532;49.398;2023-07-02T05:45:42;2.85;;;2.50;;
69714;SDS011;56981;53.532;49.398;2023-07-02T05:48:08;2.38;;;2.00;;
69714;SDS011;56981;53.532;49.398;2023-07-02T05:50:34;2.55;;;2.00;;
69714;SDS011;56981;53.532;49.398;2023-07-02T05:53:00;1.85;;;1.73;;
69714;SDS011;56981;53.532;49.398;2023-07-02T05:55:26;4.40;;;2.00;;
69714;SDS011;56981;53.532;49.398;2023-07-02T05:57:52;1.83;;;1.73;;
69714;SDS011;56981;53.532;49.398;2023-07-02T06:00:18;3.20;;;2.38;;
69714;SDS011;56981;53.532;49.398;2023-07-02T06:02:46;5.55;;;2.10;;
69714;SDS011;56981;53.532;49.398;2023-07-02T06:05:12;4.93;;;2.70;;
69714;SDS011;56981;53.532;49.398;2023-07-02T06:07:38;2.97;;;2.40;;
69714;SDS011;56981;53.532;49.398;2023-07-02T06:10:04;3.20;;;2.08;;
69714;SDS011;56981;53.532;49.398;2023-07-02T06:12:30;3.90;;;2.38;;
69714;SDS011;56981;53.532;49.398;2023-07-02T06:14:56;2.60;;;2.40;;
69714;SDS011;56981;53.532;49.398;2023-07-02T06:17:23;2.45;;;2.22;;
69714;SDS011;56981;53.532;49.398;2023-07-02T06:19:50;4.05;;;2.33;;
69714;SDS011;56981;53.532;49.398;2023-07-02T06:22:16;2.35;;;2.15;;
69714;SDS011;56981;53.532;49.398;2023-07-02T06:24:42;2.90;;;2.05;;
69714;SDS011;56981;53.532;49.398;2023-07-02T06:27:08;3.38;;;2.30;;
69714;SDS011;56981;53.532;49.398;2023-07-02T06:29:34;3.13;;;2.08;;
69714;SDS011;56981;53.532;49.398;2023-07-02T06:32:00;4.25;;;2.47;;
69714;SDS011;56981;53.532;49.398;2023-07-02T06:34:26;3.25;;;2.75;;
69714;SDS011;56981;53.532;49.398;2023-07-02T06:36:52;5.00;;;3.60;;
69714;SDS011;56981;53.532;49.398;2023-07-02T06:39:18;4.85;;;3.33;;
69714;SDS011;56981;53.532;49.398;2023-07-02T06:41:45;4.35;;;2.53;;
69714;SDS011;56981;53.532;49.398;2023-07-02T06:44:11;2.63;;;2.33;;
69714;SDS011;56981;53.532;49.398;2023-07-02T06:46:37;3.55;;;2.90;;
69714;SDS011;56981;53.532;49.398;2023-07-02T06:49:03;3.63;;;2.60;;
69714;SDS011;56981;53.532;49.398;2023-07-02T06:51:29;3.03;;;2.72;;
69714;SDS011;56981;53.532;49.398;2023-07-02T06:53:55;3.53;;;2.28;;
69714;SDS011;56981;53.532;49.398;2023-07-02T06:56:21;3.53;;;2.03;;
69714;SDS011;56981;53.532;49.398;2023-07-02T06:58:47;3.22;;;1.75;;
69714;SDS011;56981;53.532;49.398;2023-07-02T07:01:13;3.08;;;1.83;;
69714;SDS011;56981;53.532;49.398;2023-07-02T07:03:39;2.45;;;1.67;;
69714;SDS011;56981;53.532;49.398;2023-07-02T07:06:05;2.42;;;1.70;;
69714;SDS011;56981;53.532;49.398;2023-07-02T07:08:31;4.22;;;2.05;;
69714;SDS011;56981;53.532;49.398;2023-07-02T07:10:58;1.90;;;1.80;;
69714;SDS011;56981;53.532;49.398;2023-07-02T07:13:24;2.40;;;2.00;;
69714;SDS011;56981;53.532;49.398;2023-07-02T07:15:50;2.25;;;1.90;;
69714;SDS011;56981;53.532;49.398;2023-07-02T07:18:16;5.82;;;2.25;;
69714;SDS011;56981;53.532;49.398;2023-07-02T07:20:44;2.30;;;2.10;;
69714;SDS011;56981;53.532;49.398;2023-07-02T07:23:10;2.50;;;1.88;;
69714;SDS011;56981;53.532;49.398;2023-07-02T07:25:36;2.67;;;1.73;;
69714;SDS011;56981;53.532;49.398;2023-07-02T07:28:02;2.53;;;1.80;;
69714;SDS011;56981;53.532;49.398;2023-07-02T07:30:29;1.67;;;1.58;;
69714;SDS011;56981;53.532;49.398;2023-07-02T07:32:55;3.25;;;2.33;;
69714;SDS011;56981;53.532;49.398;2023-07-02T07:35:30;2.15;;;1.50;;
69714;SDS011;56981;53.532;49.398;2023-07-02T07:37:56;2.53;;;2.30;;
69714;SDS011;56981;53.532;49.398;2023-07-02T07:40:22;1.50;;;1.40;;
69714;SDS011;56981;53.532;49.398;2023-07-02T07:42:48;2.03;;;1.90;;
69714;SDS011;56981;53.532;49.398;2023-07-02T07:45:14;1.75;;;1.52;;
69714;SDS011;56981;53.532;49.398;2023-07-02T07:47:41;1.67;;;1.58;;
69714;SDS011;56981;53.532;49.398;2023-07-02T07:50:07;2.35;;;1.90;;
69714;SDS011;56981;53.532;49.398;2023-07-02T07:52:37;2.55;;;2.35;;
69714;SDS011;56981;53.532;49.398;2023-07-02T07:55:04;2.92;;;1.98;;
69714;SDS011;56981;53.532;49.398;2023-07-02T07:57:31;3.97;;;2.15;;
69714;SDS011;56981;53.532;49.398;2023-07-02T07:59:58;3.08;;;2.35;;
69714;SDS011;56981;53.532;49.398;2023-07-02T08:02:24;2.75;;;2.50;;
69714;SDS011;56981;53.532;49.398;2023-07-02T08:04:50;2.58;;;2.38;;
69714;SDS011;56981;53.532;49.398;2023-07-02T08:07:16;2.33;;;2.22;;
69714;SDS011;56981;53.532;49.398;2023-07-02T08:09:42;3.28;;;2.42;;
69714;SDS011;56981;53.532;49.398;2023-07-02T08:12:08;2.67;;;2.10;;
69714;SDS011;56981;53.532;49.398;2023-07-02T08:14:34;2.55;;;1.83;;
69714;SDS011;56981;53.532;49.398;2023-07-02T08:17:03;3.50;;;2.33;;
69714;SDS011;56981;53.532;49.398;2023-07-02T08:19:29;2.13;;;2.03;;
69714;SDS011;56981;53.532;49.398;2023-07-02T08:21:55;2.00;;;1.77;;
69714;SDS011;56981;53.532;49.398;2023-07-02T08:24:22;2.83;;;2.03;;
69714;SDS011;56981;53.532;49.398;2023-07-02T08:26:47;1.70;;;1.60;;
69714;SDS011;56981;53.532;49.398;2023-07-02T08:29:15;1.90;;;1.80;;
69714;SDS011;56981;53.532;49.398;2023-07-02T08:31:42;7.85;;;2.10;;
69714;SDS011;56981;53.532;49.398;2023-07-02T08:34:08;1.63;;;1.52;;
69714;SDS011;56981;53.532;49.398;2023-07-02T08:36:34;2.60;;;1.70;;
69714;SDS011;56981;53.532;49.398;2023-07-02T08:39:00;2.28;;;1.60;;
69714;SDS011;56981;53.532;49.398;2023-07-02T08:41:27;1.77;;;1.60;;
69714;SDS011;56981;53.532;49.398;2023-07-02T08:43:55;2.03;;;1.63;;
69714;SDS011;56981;53.532;49.398;2023-07-02T08:46:21;1.80;;;1.70;;
69714;SDS011;56981;53.532;49.398;2023-07-02T08:48:47;2.83;;;1.92;;
69714;SDS011;56981;53.532;49.398;2023-07-02T08:51:14;7.25;;;2.05;;
69714;SDS011;56981;53.532;49.398;2023-07-02T08:53:40;3.20;;;1.77;;
69714;SDS011;56981;53.532;49.398;2023-07-02T08:56:06;2.53;;;1.77;;
69714;SDS011;56981;53.532;49.398;2023-07-02T08:58:32;2.80;;;2.30;;
69714;SDS011;56981;53.532;49.398;2023-07-02T09:03:38;2.28;;;1.85;;
69714;SDS011;56981;53.532;49.398;2023-07-02T09:06:06;2.17;;;1.98;;
69714;SDS011;56981;53.532;49.398;2023-07-02T09:08:34;3.08;;;2.00;;
69714;SDS011;56981;53.532;49.398;2023-07-02T09:13:43;2.42;;;2.22;;
69714;SDS011;56981;53.532;49.398;2023-07-02T09:16:22;2.50;;;2.30;;
69714;SDS011;56981;53.532;49.398;2023-07-02T09:19:02;2.30;;;2.10;;
69714;SDS011;56981;53.532;49.398;2023-07-02T09:21:48;3.85;;;2.10;;
69714;SDS011;56981;53.532;49.398;2023-07-02T09:24:19;2.38;;;2.17;;
69714;SDS011;56981;53.532;49.398;2023-07-02T09:26:47;3.83;;;2.33;;
69714;SDS011;56981;53.532;49.398;2023-07-02T09:29:28;3.53;;;2.95;;
69714;SDS011;56981;53.532;49.398;2023-07-02T09:31:57;4.47;;;3.33;;
69714;SDS011;56981;53.532;49.398;2023-07-02T09:34:28;3.38;;;2.15;;
69714;SDS011;56981;53.532;49.398;2023-07-02T09:36:56;9.18;;;2.97;;
69714;SDS011;56981;53.532;49.398;2023-07-02T09:39:30;4.65;;;2.03;;
69714;SDS011;56981;53.532;49.398;2023-07-02T09:42:05;2.67;;;2.17;;
69714;SDS011;56981;53.532;49.398;2023-07-02T09:44:33;3.10;;;2.53;;
69714;SDS011;56981;53.532;49.398;2023-07-02T09:47:04;2.88;;;2.50;;
69714;SDS011;56981;53.532;49.398;2023-07-02T09:49:32;3.55;;;2.83;;
69714;SDS011;56981;53.532;49.398;2023-07-02T09:52:03;3.10;;;2.40;;
69714;SDS011;56981;53.532;49.398;2023-07-02T09:54:31;2.25;;;1.95;;
69714;SDS011;56981;53.532;49.398;2023-07-02T09:57:01;5.50;;;1.80;;
69714;SDS011;56981;53.532;49.398;2023-07-02T09:59:28;2.72;;;1.88;;
69714;SDS011;56981;53.532;49.398;2023-07-02T10:01:55;2.63;;;1.75;;
69714;SDS011;56981;53.532;49.398;2023-07-02T10:04:22;2.65;;;1.95;;
69714;SDS011;56981;53.532;49.398;2023-07-02T10:06:56;3.35;;;2.65;;
69714;SDS011;56981;53.532;49.398;2023-07-02T10:09:39;2.30;;;2.08;;
69714;SDS011;56981;53.532;49.398;2023-07-02T10:12:19;2.42;;;2.05;;
69714;SDS011;56981;53.532;49.398;2023-07-02T10:14:49;2.45;;;1.75;;
69714;SDS011;56981;53.532;49.398;2023-07-02T10:19:54;2.33;;;2.08;;
69714;SDS011;56981;53.532;49.398;2023-07-02T10:22:21;2.05;;;1.85;;
69714;SDS011;56981;53.532;49.398;2023-07-02T10:24:55;3.85;;;1.80;;
69714;SDS011;56981;53.532;49.398;2023-07-02T10:27:32;2.22;;;1.90;;
69714;SDS011;56981;53.532;49.398;2023-07-02T10:30:00;2.05;;;1.60;;
69714;SDS011;56981;53.532;49.398;2023-07-02T10:32:28;2.13;;;1.92;;
69714;SDS011;56981;53.532;49.398;2023-07-02T10:34:55;1.55;;;1.45;;
69714;SDS011;56981;53.532;49.398;2023-07-02T10:37:21;2.28;;;1.75;;
69714;SDS011;56981;53.532;49.398;2023-07-02T10:39:47;2.58;;;1.90;;
69714;SDS011;56981;53.532;49.398;2023-07-02T10:42:14;1.55;;;1.45;;
69714;SDS011;56981;53.532;49.398;2023-07-02T10:45:13;1.80;;;1.70;;
69714;SDS011;56981;53.532;49.398;2023-07-02T10:47:32;2.28;;;1.98;;
69714;SDS011;56981;53.532;49.398;2023-07-02T10:49:59;3.33;;;1.45;;
69714;SDS011;56981;53.532;49.398;2023-07-02T10:52:25;3.58;;;2.05;;
69714;SDS011;56981;53.532;49.398;2023-07-02T10:54:51;1.90;;;1.52;;
69714;SDS011;56981;53.532;49.398;2023-07-02T10:57:18;2.90;;;2.03;;
69714;SDS011;56981;53.532;49.398;2023-07-02T10:59:47;2.83;;;2.20;;
69714;SDS011;56981;53.532;49.398;2023-07-02T11:02:14;1.85;;;1.60;;
69714;SDS011;56981;53.532;49.398;2023-07-02T11:04:40;2.08;;;1.52;;
69714;SDS011;56981;53.532;49.398;2023-07-02T11:07:07;2.35;;;1.58;;
69714;SDS011;56981;53.532;49.398;2023-07-02T11:09:37;1.92;;;1.83;;
69714;SDS011;56981;53.532;49.398;2023-07-02T11:12:03;3.35;;;1.65;;
69714;SDS011;56981;53.532;49.398;2023-07-02T11:14:35;5.70;;;1.85;;
69714;SDS011;56981;53.532;49.398;2023-07-02T11:17:03;4.75;;;2.13;;
69714;SDS011;56981;53.532;49.398;2023-07-02T11:19:34;3.50;;;2.15;;
69714;SDS011;56981;53.532;49.398;2023-07-02T11:22:01;5.72;;;1.98;;
69714;SDS011;56981;53.532;49.398;2023-07-02T11:24:30;4.18;;;1.98;;
69714;SDS011;56981;53.532;49.398;2023-07-02T11:27:01;3.55;;;1.80;;
69714;SDS011;56981;53.532;49.398;2023-07-02T11:29:29;2.65;;;1.95;;
69714;SDS011;56981;53.532;49.398;2023-07-02T11:32:08;2.42;;;1.95;;
69714;SDS011;56981;53.532;49.398;2023-07-02T11:34:36;2.38;;;2.00;;
69714;SDS011;56981;53.532;49.398;2023-07-02T11:37:03;8.80;;;2.17;;
69714;SDS011;56981;53.532;49.398;2023-07-02T11:39:30;5.93;;;2.13;;
69714;SDS011;56981;53.532;49.398;2023-07-02T11:41:56;2.40;;;1.60;;
69714;SDS011;56981;53.532;49.398;2023-07-02T11:44:22;3.67;;;2.10;;
69714;SDS011;56981;53.532;49.398;2023-07-02T11:46:49;3.38;;;1.73;;
69714;SDS011;56981;53.532;49.398;2023-07-02T11:49:15;4.63;;;1.90;;
69714;SDS011;56981;53.532;49.398;2023-07-02T11:51:42;1.60;;;1.40;;
69714;SDS011;56981;53.532;49.398;2023-07-02T11:54:14;2.03;;;1.83;;
69714;SDS011;56981;53.532;49.398;2023-07-02T11:56:53;2.50;;;2.30;;
69714;SDS011;56981;53.532;49.398;2023-07-02T11:59:21;2.00;;;1.90;;
69714;SDS011;56981;53.532;49.398;2023-07-02T12:01:48;2.13;;;2.03;;
69714;SDS011;56981;53.532;49.398;2023-07-02T12:04:14;3.00;;;2.00;;
69714;SDS011;56981;53.532;49.398;2023-07-02T12:06:40;1.98;;;1.88;;
69714;SDS011;56981;53.532;49.398;2023-07-02T12:09:06;2.97;;;1.70;;
69714;SDS011;56981;53.532;49.398;2023-07-02T12:11:32;3.70;;;2.38;;
69714;SDS011;56981;53.532;49.398;2023-07-02T12:13:58;5.53;;;2.20;;
69714;SDS011;56981;53.532;49.398;2023-07-02T12:16:24;2.30;;;2.10;;
69714;SDS011;56981;53.532;49.398;2023-07-02T12:18:51;3.90;;;2.28;;
69714;SDS011;56981;53.532;49.398;2023-07-02T12:21:17;11.70;;;4.10;;
69714;SDS011;56981;53.532;49.398;2023-07-02T12:23:44;6.60;;;3.08;;
69714;SDS011;56981;53.532;49.398;2023-07-02T12:26:10;2.67;;;2.45;;
69714;SDS011;56981;53.532;49.398;2023-07-02T12:28:36;2.63;;;1.95;;
69714;SDS011;56981;53.532;49.398;2023-07-02T12:31:02;3.72;;;1.80;;
69714;SDS011;56981;53.532;49.398;2023-07-02T12:33:29;2.75;;;2.53;;
69714;SDS011;56981;53.532;49.398;2023-07-02T12:35:55;2.88;;;2.40;;
69714;SDS011;56981;53.532;49.398;2023-07-02T12:38:21;2.88;;;2.38;;
69714;SDS011;56981;53.532;49.398;2023-07-02T12:40:47;2.72;;;2.50;;
69714;SDS011;56981;53.532;49.398;2023-07-02T12:43:16;2.67;;;2.33;;
69714;SDS011;56981;53.532;49.398;2023-07-02T12:45:42;4.32;;;2.67;;
69714;SDS011;56981;53.532;49.398;2023-07-02T12:48:08;4.28;;;2.65;;
69714;SDS011;56981;53.532;49.398;2023-07-02T12:50:36;2.60;;;2.33;;
69714;SDS011;56981;53.532;49.398;2023-07-02T12:53:03;3.40;;;2.55;;
69714;SDS011;56981;53.532;49.398;2023-07-02T12:55:29;4.20;;;2.67;;
69714;SDS011;56981;53.532;49.398;2023-07-02T12:57:55;3.40;;;3.10;;
69714;SDS011;56981;53.532;49.398;2023-07-02T13:00:21;3.05;;;2.70;;
69714;SDS011;56981;53.532;49.398;2023-07-02T13:02:48;3.85;;;2.38;;
69714;SDS011;56981;53.532;49.398;2023-07-02T13:05:14;3.83;;;2.63;;
69714;SDS011;56981;53.532;49.398;2023-07-02T13:07:40;4.97;;;2.90;;
69714;SDS011;56981;53.532;49.398;2023-07-02T13:10:06;7.00;;;3.40;;
69714;SDS011;56981;53.532;49.398;2023-07-02T13:12:33;5.40;;;2.78;;
69714;SDS011;56981;53.532;49.398;2023-07-02T13:14:59;6.55;;;3.08;;
69714;SDS011;56981;53.532;49.398;2023-07-02T13:17:25;4.20;;;3.08;;
69714;SDS011;56981;53.532;49.398;2023-07-02T13:19:51;9.00;;;4.10;;
69714;SDS011;56981;53.532;49.398;2023-07-02T13:22:17;7.82;;;5.00;;
69714;SDS011;56981;53.532;49.398;2023-07-02T13:24:43;3.55;;;2.47;;
69714;SDS011;56981;53.532;49.398;2023-07-02T13:27:13;3.30;;;2.70;;
69714;SDS011;56981;53.532;49.398;2023-07-02T13:29:42;3.17;;;2.53;;
69714;SDS011;56981;53.532;49.398;2023-07-02T13:32:08;3.45;;;2.60;;
69714;SDS011;56981;53.532;49.398;2023-07-02T13:34:34;3.33;;;2.75;;
69714;SDS011;56981;53.532;49.398;2023-07-02T13:37:01;10.68;;;3.28;;
69714;SDS011;56981;53.532;49.398;2023-07-02T13:39:28;2.80;;;2.55;;
69714;SDS011;56981;53.532;49.398;2023-07-02T13:41:56;4.18;;;2.60;;
69714;SDS011;56981;53.532;49.398;2023-07-02T13:44:22;3.60;;;2.50;;
69714;SDS011;56981;53.532;49.398;2023-07-02T13:46:48;5.25;;;2.92;;
69714;SDS011;56981;53.532;49.398;2023-07-02T13:49:14;4.15;;;3.08;;
69714;SDS011;56981;53.532;49.398;2023-07-02T13:51:41;5.55;;;3.20;;
69714;SDS011;56981;53.532;49.398;2023-07-02T13:54:11;3.13;;;2.75;;
69714;SDS011;56981;53.532;49.398;2023-07-02T13:56:40;3.90;;;3.13;;
69714;SDS011;56981;53.532;49.398;2023-07-02T13:59:06;3.90;;;3.20;;
69714;SDS011;56981;53.532;49.398;2023-07-02T14:01:32;7.07;;;3.38;;
69714;SDS011;56981;53.532;49.398;2023-07-02T14:04:00;5.72;;;3.30;;
69714;SDS011;56981;53.532;49.398;2023-07-02T14:06:26;5.30;;;2.95;;
69714;SDS011;56981;53.532;49.398;2023-07-02T14:08:55;4.93;;;2.90;;
69714;SDS011;56981;53.532;49.398;2023-07-02T14:11:22;4.65;;;3.00;;
69714;SDS011;56981;53.532;49.398;2023-07-02T14:13:49;4.30;;;3.70;;
69714;SDS011;56981;53.532;49.398;2023-07-02T14:16:16;4.10;;;3.28;;
69714;SDS011;56981;53.532;49.398;2023-07-02T14:18:42;3.65;;;3.20;;
69714;SDS011;56981;53.532;49.398;2023-07-02T14:21:08;4.60;;;3.15;;
69714;SDS011;56981;53.532;49.398;2023-07-02T14:23:35;3.10;;;2.80;;
69714;SDS011;56981;53.532;49.398;2023-07-02T14:26:01;2.80;;;2.55;;
69714;SDS011;56981;53.532;49.398;2023-07-02T14:28:27;3.55;;;2.85;;
69714;SDS011;56981;53.532;49.398;2023-07-02T14:30:58;3.05;;;2.83;;
69714;SDS011;56981;53.532;49.398;2023-07-02T14:33:29;5.80;;;3.58;;
69714;SDS011;56981;53.532;49.398;2023-07-02T14:35:56;3.35;;;2.67;;
69714;SDS011;56981;53.532;49.398;2023-07-02T14:38:23;2.88;;;2.67;;
69714;SDS011;56981;53.532;49.398;2023-07-02T14:40:49;3.75;;;3.08;;
69714;SDS011;56981;53.532;49.398;2023-07-02T14:43:16;3.53;;;3.17;;
69714;SDS011;56981;53.532;49.398;2023-07-02T14:45:44;5.97;;;4.00;;